sensor_id;sensor_type;location;lat;lon;timestamp;pressure;altitude;pressure_sealevel;temperature;humidity
7834;BME280;3962;42.696;23.354;2023-04-07T00:00:52;94905.66;;;2.03;70.60
7834;BME280;3962;42.696;23.354;2023-04-07T00:03:19;94909.31;;;2.00;71.13
7834;BME280;3962;42.696;23.354;2023-04-07T00:05:46;94904.63;;;1.93;70.83
7834;BME280;3962;42.696;23.354;2023-04-07T00:08:13;94903.03;;;1.90;71.11
7834;BME280;3962;42.696;23.354;2023-04-07T00:10:41;94901.47;;;1.88;71.98
7834;BME280;3962;42.696;23.354;2023-04-07T00:13:08;94907.34;;;1.91;72.08
7834;BME280;3962;42.696;23.354;2023-04-07T00:15:35;94904.94;;;1.88;72.28
7834;BME280;3962;42.696;23.354;2023-04-07T00:18:01;94903.25;;;1.87;72.20
7834;BME280;3962;42.696;23.354;2023-04-07T00:20:28;94902.81;;;1.81;72.59
7834;BME280;3962;42.696;23.354;2023-04-07T00:22:55;94904.22;;;1.74;72.55
7834;BME280;3962;42.696;23.354;2023-04-07T00:25:22;94907.56;;;1.76;72.81
7834;BME280;3962;42.696;23.354;2023-04-07T00:27:50;94900.94;;;1.70;73.33
7834;BME280;3962;42.696;23.354;2023-04-07T00:30:17;94895.06;;;1.67;72.82
7834;BME280;3962;42.696;23.354;2023-04-07T00:32:43;94896.34;;;1.61;73.01
7834;BME280;3962;42.696;23.354;2023-04-07T00:35:10;94904.94;;;1.63;72.75
7834;BME280;3962;42.696;23.354;2023-04-07T00:37:37;94900.63;;;1.62;72.69
7834;BME280;3962;42.696;23.354;2023-04-07T00:40:05;94892.44;;;1.54;73.49
7834;BME280;3962;42.696;23.354;2023-04-07T00:42:32;94904.47;;;1.57;73.52
7834;BME280;3962;42.696;23.354;2023-04-07T00:45:01;94897.78;;;1.65;73.24
7834;BME280;3962;42.696;23.354;2023-04-07T00:47:28;94907.56;;;1.76;73.02
7834;BME280;3962;42.696;23.354;2023-04-07T00:49:54;94899.69;;;1.76;73.46
7834;BME280;3962;42.696;23.354;2023-04-07T00:52:23;94894.03;;;1.82;73.21
7834;BME280;3962;42.696;23.354;2023-04-07T00:54:53;94895.91;;;1.80;72.54
7834;BME280;3962;42.696;23.354;2023-04-07T00:57:20;94894.84;;;1.82;73.37
7834;BME280;3962;42.696;23.354;2023-04-07T00:59:48;94897.28;;;1.85;72.94
7834;BME280;3962;42.696;23.354;2023-04-07T01:02:18;94892.75;;;1.87;71.80
7834;BME280;3962;42.696;23.354;2023-04-07T01:04:50;94896.03;;;1.91;71.73
7834;BME280;3962;42.696;23.354;2023-04-07T01:07:22;94894.84;;;1.95;71.90
7834;BME280;3962;42.696;23.354;2023-04-07T01:09:54;94890.66;;;1.92;71.58
7834;BME280;3962;42.696;23.354;2023-04-07T01:12:30;94888.47;;;1.99;72.07
7834;BME280;3962;42.696;23.354;2023-04-07T01:15:07;94889.19;;;2.01;72.14
7834;BME280;3962;42.696;23.354;2023-04-07T01:17:36;94892.44;;;2.04;72.83
7834;BME280;3962;42.696;23.354;2023-04-07T01:20:06;94892.53;;;2.03;72.14
7834;BME280;3962;42.696;23.354;2023-04-07T01:22:40;94890.84;;;2.02;71.42
7834;BME280;3962;42.696;23.354;2023-04-07T01:25:22;94891.50;;;1.93;71.74
7834;BME280;3962;42.696;23.354;2023-04-07T01:28:09;94886.16;;;1.82;71.64
7834;BME280;3962;42.696;23.354;2023-04-07T01:30:42;94879.66;;;1.62;73.14
7834;BME280;3962;42.696;23.354;2023-04-07T01:33:11;94886.25;;;1.43;74.00
7834;BME280;3962;42.696;23.354;2023-04-07T01:35:40;94881.56;;;1.21;73.92
7834;BME280;3962;42.696;23.354;2023-04-07T01:38:10;94885.66;;;1.13;75.74
7834;BME280;3962;42.696;23.354;2023-04-07T01:40:38;94875.59;;;1.19;76.17
7834;BME280;3962;42.696;23.354;2023-04-07T01:43:05;94876.53;;;1.18;76.30
7834;BME280;3962;42.696;23.354;2023-04-07T01:45:34;94872.03;;;1.20;76.13
7834;BME280;3962;42.696;23.354;2023-04-07T01:48:04;94874.34;;;1.25;75.74
7834;BME280;3962;42.696;23.354;2023-04-07T01:50:32;94866.06;;;1.18;75.78
7834;BME280;3962;42.696;23.354;2023-04-07T01:53:00;94875.91;;;1.15;76.69
7834;BME280;3962;42.696;23.354;2023-04-07T01:55:29;94874.97;;;1.16;76.68
7834;BME280;3962;42.696;23.354;2023-04-07T01:57:56;94865.03;;;1.21;75.95
7834;BME280;3962;42.696;23.354;2023-04-07T02:00:23;94865.44;;;1.15;75.87
7834;BME280;3962;42.696;23.354;2023-04-07T02:02:54;94865.03;;;1.21;76.39
7834;BME280;3962;42.696;23.354;2023-04-07T02:05:25;94864.00;;;1.23;77.09
7834;BME280;3962;42.696;23.354;2023-04-07T02:07:58;94869.44;;;1.33;77.45
7834;BME280;3962;42.696;23.354;2023-04-07T02:10:27;94869.34;;;1.47;75.97
7834;BME280;3962;42.696;23.354;2023-04-07T02:12:55;94870.41;;;1.57;76.94
7834;BME280;3962;42.696;23.354;2023-04-07T02:15:25;94866.31;;;1.78;76.16
7834;BME280;3962;42.696;23.354;2023-04-07T02:17:53;94865.59;;;1.88;74.35
7834;BME280;3962;42.696;23.354;2023-04-07T02:20:24;94868.53;;;1.84;73.76
7834;BME280;3962;42.696;23.354;2023-04-07T02:22:51;94864.88;;;1.74;74.48
7834;BME280;3962;42.696;23.354;2023-04-07T02:25:22;94871.34;;;1.81;74.80
7834;BME280;3962;42.696;23.354;2023-04-07T02:27:49;94872.72;;;1.86;74.17
7834;BME280;3962;42.696;23.354;2023-04-07T02:30:16;94874.00;;;1.93;74.34
7834;BME280;3962;42.696;23.354;2023-04-07T02:32:43;94869.47;;;1.95;73.96
7834;BME280;3962;42.696;23.354;2023-04-07T02:35:10;94874.63;;;1.97;74.51
7834;BME280;3962;42.696;23.354;2023-04-07T02:37:38;94865.47;;;2.02;73.40
7834;BME280;3962;42.696;23.354;2023-04-07T02:40:06;94878.59;;;2.02;74.33
7834;BME280;3962;42.696;23.354;2023-04-07T02:42:33;94871.69;;;2.01;73.56
7834;BME280;3962;42.696;23.354;2023-04-07T02:45:00;94876.06;;;2.01;73.43
7834;BME280;3962;42.696;23.354;2023-04-07T02:47:27;94867.97;;;2.04;73.97
7834;BME280;3962;42.696;23.354;2023-04-07T02:49:54;94878.59;;;2.02;73.88
7834;BME280;3962;42.696;23.354;2023-04-07T02:52:21;94872.81;;;2.10;74.23
7834;BME280;3962;42.696;23.354;2023-04-07T02:54:49;94873.72;;;2.21;72.32
7834;BME280;3962;42.696;23.354;2023-04-07T02:57:16;94872.28;;;2.17;72.84
7834;BME280;3962;42.696;23.354;2023-04-07T02:59:43;94878.69;;;2.13;73.23
7834;BME280;3962;42.696;23.354;2023-04-07T03:02:10;94878.78;;;2.24;73.78
7834;BME280;3962;42.696;23.354;2023-04-07T03:04:37;94874.31;;;2.37;72.12
7834;BME280;3962;42.696;23.354;2023-04-07T03:07:04;94869.94;;;2.38;71.66
7834;BME280;3962;42.696;23.354;2023-04-07T03:09:31;94870.78;;;2.26;71.94
7834;BME280;3962;42.696;23.354;2023-04-07T03:11:59;94866.53;;;2.36;72.27
7834;BME280;3962;42.696;23.354;2023-04-07T03:14:26;94879.44;;;2.51;71.88
7834;BME280;3962;42.696;23.354;2023-04-07T03:16:53;94870.91;;;2.60;71.63
7834;BME280;3962;42.696;23.354;2023-04-07T03:19:20;94873.81;;;2.68;71.33
7834;BME280;3962;42.696;23.354;2023-04-07T03:21:47;94871.81;;;2.72;71.49
7834;BME280;3962;42.696;23.354;2023-04-07T03:24:14;94865.41;;;2.76;70.84
7834;BME280;3962;42.696;23.354;2023-04-07T03:26:41;94865.25;;;2.77;70.58
7834;BME280;3962;42.696;23.354;2023-04-07T03:29:09;94871.63;;;2.62;70.18
7834;BME280;3962;42.696;23.354;2023-04-07T03:31:35;94864.31;;;2.55;70.14
7834;BME280;3962;42.696;23.354;2023-04-07T03:34:02;94864.75;;;2.49;70.68
7834;BME280;3962;42.696;23.354;2023-04-07T03:36:29;94867.91;;;2.41;71.31
7834;BME280;3962;42.696;23.354;2023-04-07T03:38:57;94865.53;;;2.26;72.02
7834;BME280;3962;42.696;23.354;2023-04-07T03:41:24;94871.84;;;2.11;72.80
7834;BME280;3962;42.696;23.354;2023-04-07T03:43:51;94872.50;;;1.77;73.29
7834;BME280;3962;42.696;23.354;2023-04-07T03:46:19;94872.41;;;1.66;73.26
7834;BME280;3962;42.696;23.354;2023-04-07T03:48:46;94871.78;;;1.75;73.71
7834;BME280;3962;42.696;23.354;2023-04-07T03:51:13;94879.22;;;1.81;73.62
7834;BME280;3962;42.696;23.354;2023-04-07T03:53:40;94881.75;;;1.82;73.40
7834;BME280;3962;42.696;23.354;2023-04-07T03:56:07;94880.38;;;1.77;73.84
7834;BME280;3962;42.696;23.354;2023-04-07T03:58:34;94882.78;;;1.80;74.89
7834;BME280;3962;42.696;23.354;2023-04-07T04:01:01;94884.38;;;1.82;74.84
7834;BME280;3962;42.696;23.354;2023-04-07T04:03:29;94885.31;;;1.81;74.69
7834;BME280;3962;42.696;23.354;2023-04-07T04:05:56;94874.72;;;1.70;75.33
7834;BME280;3962;42.696;23.354;2023-04-07T04:08:23;94889.81;;;1.67;75.93
7834;BME280;3962;42.696;23.354;2023-04-07T04:10:50;94892.94;;;1.59;77.01
7834;BME280;3962;42.696;23.354;2023-04-07T04:13:17;94894.84;;;1.45;76.79
7834;BME280;3962;42.696;23.354;2023-04-07T04:15:44;94891.78;;;1.38;76.69
7834;BME280;3962;42.696;23.354;2023-04-07T04:18:11;94892.84;;;1.36;77.10
7834;BME280;3962;42.696;23.354;2023-04-07T04:20:39;94894.91;;;1.31;78.49
7834;BME280;3962;42.696;23.354;2023-04-07T04:23:06;94904.13;;;1.36;77.31
7834;BME280;3962;42.696;23.354;2023-04-07T04:25:32;94905.22;;;1.46;77.77
7834;BME280;3962;42.696;23.354;2023-04-07T04:27:59;94905.94;;;1.36;77.38
7834;BME280;3962;42.696;23.354;2023-04-07T04:30:26;94907.59;;;1.24;76.88
7834;BME280;3962;42.696;23.354;2023-04-07T04:32:53;94912.09;;;1.22;77.13
7834;BME280;3962;42.696;23.354;2023-04-07T04:35:20;94907.03;;;1.19;77.37
7834;BME280;3962;42.696;23.354;2023-04-07T04:37:48;94913.16;;;1.32;75.91
7834;BME280;3962;42.696;23.354;2023-04-07T04:40:15;94912.47;;;1.43;76.84
7834;BME280;3962;42.696;23.354;2023-04-07T04:42:42;94923.38;;;1.49;76.73
7834;BME280;3962;42.696;23.354;2023-04-07T04:45:09;94921.28;;;1.54;76.40
7834;BME280;3962;42.696;23.354;2023-04-07T04:47:36;94914.06;;;1.58;75.09
7834;BME280;3962;42.696;23.354;2023-04-07T04:50:04;94919.31;;;1.70;75.35
7834;BME280;3962;42.696;23.354;2023-04-07T04:52:31;94924.25;;;1.75;75.04
7834;BME280;3962;42.696;23.354;2023-04-07T04:55:00;94925.59;;;1.80;75.14
7834;BME280;3962;42.696;23.354;2023-04-07T04:57:27;94922.34;;;1.89;74.68
7834;BME280;3962;42.696;23.354;2023-04-07T04:59:54;94931.78;;;1.92;74.57
7834;BME280;3962;42.696;23.354;2023-04-07T05:02:20;94927.59;;;2.02;73.90
7834;BME280;3962;42.696;23.354;2023-04-07T05:04:47;94930.09;;;2.16;73.60
7834;BME280;3962;42.696;23.354;2023-04-07T05:07:14;94938.28;;;2.24;73.81
7834;BME280;3962;42.696;23.354;2023-04-07T05:09:41;94941.22;;;2.32;72.95
7834;BME280;3962;42.696;23.354;2023-04-07T05:12:09;94945.81;;;2.41;72.93
7834;BME280;3962;42.696;23.354;2023-04-07T05:14:35;94943.28;;;2.39;71.94
7834;BME280;3962;42.696;23.354;2023-04-07T05:17:02;94957.59;;;2.48;72.14
7834;BME280;3962;42.696;23.354;2023-04-07T05:19:29;94952.25;;;2.49;71.86
7834;BME280;3962;42.696;23.354;2023-04-07T05:21:57;94945.72;;;2.55;71.43
7834;BME280;3962;42.696;23.354;2023-04-07T05:24:25;94945.19;;;2.50;71.79
7834;BME280;3962;42.696;23.354;2023-04-07T05:26:52;94958.72;;;2.44;71.15
7834;BME280;3962;42.696;23.354;2023-04-07T05:29:20;94947.72;;;2.51;72.40
7834;BME280;3962;42.696;23.354;2023-04-07T05:31:47;94941.28;;;2.55;71.91
7834;BME280;3962;42.696;23.354;2023-04-07T05:34:14;94947.75;;;2.75;72.21
7834;BME280;3962;42.696;23.354;2023-04-07T05:36:41;94944.34;;;2.85;71.58
7834;BME280;3962;42.696;23.354;2023-04-07T05:39:08;94958.75;;;2.92;71.06
7834;BME280;3962;42.696;23.354;2023-04-07T05:41:35;94954.97;;;2.96;70.86
7834;BME280;3962;42.696;23.354;2023-04-07T05:44:02;94942.63;;;2.97;70.77
7834;BME280;3962;42.696;23.354;2023-04-07T05:46:30;94946.56;;;3.15;70.52
7834;BME280;3962;42.696;23.354;2023-04-07T05:48:57;94950.13;;;3.14;70.89
7834;BME280;3962;42.696;23.354;2023-04-07T05:51:25;94953.53;;;3.16;70.98
7834;BME280;3962;42.696;23.354;2023-04-07T05:53:53;94937.22;;;3.11;70.34
7834;BME280;3962;42.696;23.354;2023-04-07T05:56:19;94954.75;;;3.23;70.95
7834;BME280;3962;42.696;23.354;2023-04-07T05:58:46;94951.66;;;3.29;71.09
7834;BME280;3962;42.696;23.354;2023-04-07T06:01:13;94954.63;;;3.47;70.57
7834;BME280;3962;42.696;23.354;2023-04-07T06:03:42;94956.13;;;3.62;68.91
7834;BME280;3962;42.696;23.354;2023-04-07T06:06:09;94958.97;;;3.59;68.56
7834;BME280;3962;42.696;23.354;2023-04-07T06:08:36;94948.09;;;3.64;69.06
7834;BME280;3962;42.696;23.354;2023-04-07T06:11:03;94949.91;;;3.63;68.66
7834;BME280;3962;42.696;23.354;2023-04-07T06:13:29;94946.31;;;3.64;68.98
7834;BME280;3962;42.696;23.354;2023-04-07T06:15:56;94945.03;;;3.70;68.62
7834;BME280;3962;42.696;23.354;2023-04-07T06:18:23;94952.94;;;3.81;69.35
7834;BME280;3962;42.696;23.354;2023-04-07T06:20:51;94945.31;;;3.89;67.57
7834;BME280;3962;42.696;23.354;2023-04-07T06:23:18;94950.50;;;4.12;67.26
7834;BME280;3962;42.696;23.354;2023-04-07T06:25:45;94951.06;;;4.05;63.49
7834;BME280;3962;42.696;23.354;2023-04-07T06:28:16;94952.19;;;4.13;65.09
7834;BME280;3962;42.696;23.354;2023-04-07T06:30:43;94950.75;;;4.20;64.04
7834;BME280;3962;42.696;23.354;2023-04-07T06:33:10;94945.84;;;4.16;62.85
7834;BME280;3962;42.696;23.354;2023-04-07T06:35:38;94941.91;;;4.21;62.94
7834;BME280;3962;42.696;23.354;2023-04-07T06:38:06;94950.41;;;4.36;62.49
7834;BME280;3962;42.696;23.354;2023-04-07T06:40:33;94936.44;;;4.57;61.11
7834;BME280;3962;42.696;23.354;2023-04-07T06:43:00;94944.66;;;4.75;61.33
7834;BME280;3962;42.696;23.354;2023-04-07T06:45:28;94950.06;;;4.73;61.08
7834;BME280;3962;42.696;23.354;2023-04-07T06:47:55;94958.31;;;4.91;60.66
7834;BME280;3962;42.696;23.354;2023-04-07T06:50:22;94953.72;;;5.15;60.21
7834;BME280;3962;42.696;23.354;2023-04-07T06:52:48;94949.03;;;5.18;59.90
7834;BME280;3962;42.696;23.354;2023-04-07T06:55:17;94955.91;;;5.10;59.40
7834;BME280;3962;42.696;23.354;2023-04-07T06:57:43;94949.09;;;5.39;59.71
7834;BME280;3962;42.696;23.354;2023-04-07T07:00:11;94952.44;;;5.52;58.94
7834;BME280;3962;42.696;23.354;2023-04-07T07:02:38;94947.66;;;5.77;58.17
7834;BME280;3962;42.696;23.354;2023-04-07T07:05:05;94951.03;;;6.00;57.32
7834;BME280;3962;42.696;23.354;2023-04-07T07:07:32;94945.25;;;6.06;56.20
7834;BME280;3962;42.696;23.354;2023-04-07T07:10:00;94948.75;;;6.27;55.67
7834;BME280;3962;42.696;23.354;2023-04-07T07:12:28;94956.31;;;6.61;55.10
7834;BME280;3962;42.696;23.354;2023-04-07T07:14:55;94957.88;;;6.73;53.52
7834;BME280;3962;42.696;23.354;2023-04-07T07:17:22;94953.47;;;6.83;53.40
7834;BME280;3962;42.696;23.354;2023-04-07T07:19:49;94962.38;;;6.82;52.78
7834;BME280;3962;42.696;23.354;2023-04-07T07:22:15;94958.19;;;6.80;53.85
7834;BME280;3962;42.696;23.354;2023-04-07T07:24:42;94965.53;;;6.97;53.83
7834;BME280;3962;42.696;23.354;2023-04-07T07:27:10;94972.50;;;7.07;53.57
7834;BME280;3962;42.696;23.354;2023-04-07T07:29:38;94970.19;;;6.84;56.64
7834;BME280;3962;42.696;23.354;2023-04-07T07:32:05;94973.16;;;7.29;58.68
7834;BME280;3962;42.696;23.354;2023-04-07T07:34:32;94971.63;;;7.36;54.10
7834;BME280;3962;42.696;23.354;2023-04-07T07:36:59;94973.97;;;6.91;54.19
7834;BME280;3962;42.696;23.354;2023-04-07T07:39:26;94971.63;;;6.67;54.82
7834;BME280;3962;42.696;23.354;2023-04-07T07:41:54;94977.94;;;6.76;54.72
7834;BME280;3962;42.696;23.354;2023-04-07T07:44:20;94974.72;;;6.72;54.54
7834;BME280;3962;42.696;23.354;2023-04-07T07:46:50;94974.94;;;6.60;55.26
7834;BME280;3962;42.696;23.354;2023-04-07T07:49:16;94979.53;;;6.58;55.75
7834;BME280;3962;42.696;23.354;2023-04-07T07:51:43;94970.13;;;6.74;54.67
7834;BME280;3962;42.696;23.354;2023-04-07T07:54:11;94974.31;;;7.07;54.81
7834;BME280;3962;42.696;23.354;2023-04-07T07:56:38;94969.97;;;7.45;52.59
7834;BME280;3962;42.696;23.354;2023-04-07T07:59:05;94967.78;;;7.97;51.88
7834;BME280;3962;42.696;23.354;2023-04-07T08:01:31;94958.06;;;8.26;46.75
7834;BME280;3962;42.696;23.354;2023-04-07T08:04:00;94957.31;;;7.77;46.30
7834;BME280;3962;42.696;23.354;2023-04-07T08:06:27;94952.16;;;7.56;46.33
7834;BME280;3962;42.696;23.354;2023-04-07T08:08:56;94966.66;;;7.62;46.74
7834;BME280;3962;42.696;23.354;2023-04-07T08:11:23;94959.09;;;7.38;45.92
7834;BME280;3962;42.696;23.354;2023-04-07T08:13:50;94967.03;;;7.38;46.29
7834;BME280;3962;42.696;23.354;2023-04-07T08:16:18;94961.94;;;7.56;45.60
7834;BME280;3962;42.696;23.354;2023-04-07T08:18:46;94959.56;;;7.81;45.29
7834;BME280;3962;42.696;23.354;2023-04-07T08:21:14;94964.88;;;7.91;44.93
7834;BME280;3962;42.696;23.354;2023-04-07T08:23:41;94959.16;;;8.05;45.44
7834;BME280;3962;42.696;23.354;2023-04-07T08:26:08;94964.47;;;8.24;44.39
7834;BME280;3962;42.696;23.354;2023-04-07T08:28:35;94962.75;;;8.51;44.91
7834;BME280;3962;42.696;23.354;2023-04-07T08:31:02;94962.75;;;8.61;44.42
7834;BME280;3962;42.696;23.354;2023-04-07T08:33:29;94955.34;;;8.55;44.31
7834;BME280;3962;42.696;23.354;2023-04-07T08:35:55;94963.75;;;8.12;45.17
7834;BME280;3962;42.696;23.354;2023-04-07T08:38:24;94956.78;;;8.02;44.66
7834;BME280;3962;42.696;23.354;2023-04-07T08:40:56;94955.63;;;7.66;45.61
7834;BME280;3962;42.696;23.354;2023-04-07T08:43:25;94962.78;;;8.04;45.17
7834;BME280;3962;42.696;23.354;2023-04-07T08:45:55;94948.13;;;7.90;45.42
7834;BME280;3962;42.696;23.354;2023-04-07T08:48:23;94967.94;;;8.05;45.46
7834;BME280;3962;42.696;23.354;2023-04-07T08:50:51;94958.31;;;8.52;45.40
7834;BME280;3962;42.696;23.354;2023-04-07T08:53:25;94969.59;;;8.63;43.70
7834;BME280;3962;42.696;23.354;2023-04-07T08:55:55;94958.91;;;9.19;42.96
7834;BME280;3962;42.696;23.354;2023-04-07T08:58:22;94956.97;;;9.21;43.13
7834;BME280;3962;42.696;23.354;2023-04-07T09:00:49;94966.41;;;9.23;42.83
7834;BME280;3962;42.696;23.354;2023-04-07T09:03:17;94960.91;;;9.07;42.48
7834;BME280;3962;42.696;23.354;2023-04-07T09:05:44;94966.50;;;8.58;42.85
7834;BME280;3962;42.696;23.354;2023-04-07T09:08:11;94962.13;;;8.76;43.46
7834;BME280;3962;42.696;23.354;2023-04-07T09:10:39;94966.03;;;8.82;43.10
7834;BME280;3962;42.696;23.354;2023-04-07T09:13:06;94968.88;;;8.61;43.65
7834;BME280;3962;42.696;23.354;2023-04-07T09:15:33;94970.81;;;8.78;43.56
7834;BME280;3962;42.696;23.354;2023-04-07T09:18:00;94972.00;;;9.30;43.38
7834;BME280;3962;42.696;23.354;2023-04-07T09:20:54;94965.22;;;9.45;42.27
7834;BME280;3962;42.696;23.354;2023-04-07T09:23:29;94962.91;;;9.32;42.27
7834;BME280;3962;42.696;23.354;2023-04-07T09:25:59;94966.00;;;9.55;41.60
7834;BME280;3962;42.696;23.354;2023-04-07T09:28:38;94959.38;;;9.41;42.70
7834;BME280;3962;42.696;23.354;2023-04-07T09:31:06;94964.22;;;10.43;41.36
7834;BME280;3962;42.696;23.354;2023-04-07T09:33:33;94964.78;;;10.72;41.34
7834;BME280;3962;42.696;23.354;2023-04-07T09:36:01;94960.53;;;10.79;40.08
7834;BME280;3962;42.696;23.354;2023-04-07T09:38:32;94967.59;;;10.10;40.39
7834;BME280;3962;42.696;23.354;2023-04-07T09:41:08;94960.34;;;9.85;42.15
7834;BME280;3962;42.696;23.354;2023-04-07T09:43:36;94965.84;;;9.74;41.96
7834;BME280;3962;42.696;23.354;2023-04-07T09:46:08;94971.06;;;9.93;42.31
7834;BME280;3962;42.696;23.354;2023-04-07T09:48:35;94968.38;;;9.75;41.81
7834;BME280;3962;42.696;23.354;2023-04-07T09:51:06;94959.63;;;9.83;42.59
7834;BME280;3962;42.696;23.354;2023-04-07T09:53:41;94974.53;;;9.76;42.39
7834;BME280;3962;42.696;23.354;2023-04-07T09:56:10;94982.00;;;9.36;42.48
7834;BME280;3962;42.696;23.354;2023-04-07T09:58:38;94975.47;;;9.57;41.80
7834;BME280;3962;42.696;23.354;2023-04-07T10:01:06;94973.25;;;9.97;42.17
7834;BME280;3962;42.696;23.354;2023-04-07T10:03:36;94976.84;;;10.23;41.57
7834;BME280;3962;42.696;23.354;2023-04-07T10:06:08;94968.69;;;10.60;41.36
7834;BME280;3962;42.696;23.354;2023-04-07T10:08:42;94986.78;;;10.56;41.54
7834;BME280;3962;42.696;23.354;2023-04-07T10:11:13;94982.69;;;10.27;42.48
7834;BME280;3962;42.696;23.354;2023-04-07T10:13:40;94982.69;;;10.44;41.89
7834;BME280;3962;42.696;23.354;2023-04-07T10:16:07;94972.47;;;9.87;43.10
7834;BME280;3962;42.696;23.354;2023-04-07T10:18:36;94967.94;;;9.97;43.33
7834;BME280;3962;42.696;23.354;2023-04-07T10:21:04;94975.38;;;9.49;44.54
7834;BME280;3962;42.696;23.354;2023-04-07T10:23:48;94974.94;;;9.54;44.50
7834;BME280;3962;42.696;23.354;2023-04-07T10:26:22;94974.34;;;9.33;44.18
7834;BME280;3962;42.696;23.354;2023-04-07T10:28:57;94976.47;;;9.29;44.52
7834;BME280;3962;42.696;23.354;2023-04-07T10:31:26;94982.09;;;9.17;44.71
7834;BME280;3962;42.696;23.354;2023-04-07T10:33:53;94980.22;;;9.00;45.42
7834;BME280;3962;42.696;23.354;2023-04-07T10:36:21;94981.09;;;8.91;47.11
7834;BME280;3962;42.696;23.354;2023-04-07T10:39:20;94987.03;;;8.66;46.82
7834;BME280;3962;42.696;23.354;2023-04-07T10:41:48;94987.38;;;8.90;46.36
7834;BME280;3962;42.696;23.354;2023-04-07T10:44:44;94988.22;;;8.81;46.34
7834;BME280;3962;42.696;23.354;2023-04-07T10:47:12;94998.16;;;9.15;47.39
7834;BME280;3962;42.696;23.354;2023-04-07T10:53:05;94986.00;;;8.76;46.27
7834;BME280;3962;42.696;23.354;2023-04-07T10:55:36;94993.78;;;8.97;46.44
7834;BME280;3962;42.696;23.354;2023-04-07T10:58:36;94990.19;;;9.15;46.23
7834;BME280;3962;42.696;23.354;2023-04-07T11:01:22;94991.94;;;9.34;46.14
7834;BME280;3962;42.696;23.354;2023-04-07T11:04:07;95001.16;;;9.03;46.06
7834;BME280;3962;42.696;23.354;2023-04-07T11:06:34;95004.13;;;8.81;45.96
7834;BME280;3962;42.696;23.354;2023-04-07T11:09:01;95001.56;;;9.08;46.53
7834;BME280;3962;42.696;23.354;2023-04-07T11:11:36;95010.94;;;9.66;46.41
7834;BME280;3962;42.696;23.354;2023-04-07T11:14:05;95001.16;;;9.66;45.13
7834;BME280;3962;42.696;23.354;2023-04-07T11:16:35;95007.69;;;9.45;45.46
7834;BME280;3962;42.696;23.354;2023-04-07T11:19:02;95007.81;;;9.53;46.16
7834;BME280;3962;42.696;23.354;2023-04-07T11:21:29;95002.97;;;9.66;45.65
7834;BME280;3962;42.696;23.354;2023-04-07T11:26:55;95004.88;;;9.19;46.56
7834;BME280;3962;42.696;23.354;2023-04-07T11:29:28;95008.22;;;9.21;47.04
7834;BME280;3962;42.696;23.354;2023-04-07T11:31:57;95000.56;;;9.45;46.92
7834;BME280;3962;42.696;23.354;2023-04-07T11:34:28;95009.59;;;9.25;46.03
7834;BME280;3962;42.696;23.354;2023-04-07T11:36:56;95010.25;;;9.37;46.17
7834;BME280;3962;42.696;23.354;2023-04-07T11:39:25;95007.09;;;9.51;46.89
7834;BME280;3962;42.696;23.354;2023-04-07T11:41:55;95015.56;;;9.37;46.06
7834;BME280;3962;42.696;23.354;2023-04-07T11:44:22;95014.28;;;9.41;45.92
7834;BME280;3962;42.696;23.354;2023-04-07T11:46:56;95016.59;;;9.17;46.48
7834;BME280;3962;42.696;23.354;2023-04-07T11:49:25;95008.22;;;9.21;47.42
7834;BME280;3962;42.696;23.354;2023-04-07T11:51:57;95013.81;;;9.18;46.58
7834;BME280;3962;42.696;23.354;2023-04-07T11:54:25;95012.38;;;8.97;46.80
7834;BME280;3962;42.696;23.354;2023-04-07T11:56:52;95012.75;;;9.02;46.80
7834;BME280;3962;42.696;23.354;2023-04-07T11:59:23;95013.72;;;9.01;46.65
7834;BME280;3962;42.696;23.354;2023-04-07T12:01:51;95013.84;;;9.09;47.09
7834;BME280;3962;42.696;23.354;2023-04-07T12:04:20;95009.88;;;9.22;46.00
7834;BME280;3962;42.696;23.354;2023-04-07T12:06:48;95007.09;;;9.24;46.74
7834;BME280;3962;42.696;23.354;2023-04-07T12:09:26;95011.00;;;9.56;46.21
7834;BME280;3962;42.696;23.354;2023-04-07T12:11:54;95002.09;;;10.19;45.36
7834;BME280;3962;42.696;23.354;2023-04-07T12:14:22;95011.44;;;10.41;46.55
7834;BME280;3962;42.696;23.354;2023-04-07T12:16:50;95011.19;;;10.52;44.99
7834;BME280;3962;42.696;23.354;2023-04-07T12:19:22;95017.75;;;10.82;44.44
7834;BME280;3962;42.696;23.354;2023-04-07T12:21:49;95016.81;;;11.17;43.36
7834;BME280;3962;42.696;23.354;2023-04-07T12:24:17;95004.41;;;10.05;44.72
7834;BME280;3962;42.696;23.354;2023-04-07T12:26:45;95015.88;;;10.58;45.14
7834;BME280;3962;42.696;23.354;2023-04-07T12:29:13;95009.28;;;10.44;45.40
7834;BME280;3962;42.696;23.354;2023-04-07T12:31:40;95018.88;;;10.55;45.13
7834;BME280;3962;42.696;23.354;2023-04-07T12:34:22;95019.47;;;10.14;45.07
7834;BME280;3962;42.696;23.354;2023-04-07T12:36:50;95008.16;;;9.58;45.86
7834;BME280;3962;42.696;23.354;2023-04-07T12:39:18;95006.22;;;9.60;46.25
7834;BME280;3962;42.696;23.354;2023-04-07T12:41:46;95009.84;;;9.59;47.02
7834;BME280;3962;42.696;23.354;2023-04-07T12:44:17;95002.38;;;9.72;46.85
7834;BME280;3962;42.696;23.354;2023-04-07T12:46:44;95015.75;;;9.80;47.15
7834;BME280;3962;42.696;23.354;2023-04-07T12:49:11;95005.06;;;9.62;46.39
7834;BME280;3962;42.696;23.354;2023-04-07T12:51:39;95000.91;;;9.60;47.06
7834;BME280;3962;42.696;23.354;2023-04-07T12:54:06;94997.63;;;9.66;46.89
7834;BME280;3962;42.696;23.354;2023-04-07T12:56:33;95000.28;;;9.93;46.82
7834;BME280;3962;42.696;23.354;2023-04-07T12:59:02;94999.75;;;9.89;46.68
7834;BME280;3962;42.696;23.354;2023-04-07T13:01:29;95004.00;;;9.55;46.84
7834;BME280;3962;42.696;23.354;2023-04-07T13:04:00;95024.97;;;9.22;47.68
7834;BME280;3962;42.696;23.354;2023-04-07T13:06:27;95016.13;;;8.94;47.57
7834;BME280;3962;42.696;23.354;2023-04-07T13:08:56;95015.94;;;9.05;48.18
7834;BME280;3962;42.696;23.354;2023-04-07T13:11:26;95019.59;;;9.41;47.11
7834;BME280;3962;42.696;23.354;2023-04-07T13:13:54;95022.88;;;9.25;46.46
7834;BME280;3962;42.696;23.354;2023-04-07T13:16:21;95021.66;;;9.10;47.46
7834;BME280;3962;42.696;23.354;2023-04-07T13:18:48;95018.38;;;9.26;47.33
7834;BME280;3962;42.696;23.354;2023-04-07T13:21:15;95018.69;;;9.23;47.13
7834;BME280;3962;42.696;23.354;2023-04-07T13:23:41;95018.19;;;9.00;47.80
7834;BME280;3962;42.696;23.354;2023-04-07T13:26:10;95016.97;;;9.31;47.73
7834;BME280;3962;42.696;23.354;2023-04-07T13:28:36;95015.25;;;9.13;47.39
7834;BME280;3962;42.696;23.354;2023-04-07T13:31:04;95018.22;;;8.91;47.82
7834;BME280;3962;42.696;23.354;2023-04-07T13:33:31;95022.22;;;9.14;48.02
7834;BME280;3962;42.696;23.354;2023-04-07T13:35:58;95019.56;;;9.14;48.06